createdAt,value
2023-01-18T00:01:17.185Z,5.15
2023-01-18T00:03:45.586Z,4.90
2023-01-18T00:06:12.739Z,5.10
2023-01-18T00:08:41.621Z,4.85
2023-01-18T00:11:09.965Z,5.15
2023-01-18T00:16:12.209Z,4.88
2023-01-18T00:18:40.182Z,4.60
2023-01-18T00:21:09.383Z,5.30
2023-01-18T00:23:36.735Z,5.07
2023-01-18T00:26:09.287Z,4.55
2023-01-18T00:28:37.386Z,5.22
2023-01-18T00:31:17.466Z,4.25
2023-01-18T00:34:11.717Z,5.10
2023-01-18T00:39:05.301Z,5.05
2023-01-18T00:41:32.019Z,5.15
2023-01-18T00:43:58.851Z,5.20
2023-01-18T00:46:29.976Z,5.20
2023-01-18T00:48:59.592Z,4.93
2023-01-18T00:51:27.199Z,5.45
2023-01-18T00:54:06.084Z,5.28
2023-01-18T00:56:32.825Z,5.15
2023-01-18T00:58:59.495Z,4.80
2023-01-18T01:01:26.236Z,4.95
2023-01-18T01:04:11.765Z,5.18
2023-01-18T01:06:40.248Z,4.15
2023-01-18T01:09:06.959Z,4.30
2023-01-18T01:11:34.449Z,3.95
2023-01-18T01:14:20.181Z,3.90
2023-01-18T01:17:05.720Z,3.38
2023-01-18T01:22:22.974Z,3.58
2023-01-18T01:25:08.369Z,3.60
2023-01-18T01:27:35.073Z,2.83
2023-01-18T01:30:04.191Z,3.00
2023-01-18T01:32:31.473Z,3.38
2023-01-18T01:35:01.757Z,3.30
2023-01-18T01:37:28.417Z,3.20
2023-01-18T01:39:56.863Z,3.15
2023-01-18T01:42:23.539Z,3.75
2023-01-18T01:44:52.193Z,3.45
2023-01-18T01:47:27.339Z,3.03
2023-01-18T01:49:59.250Z,3.33
2023-01-18T01:52:34.477Z,3.15
2023-01-18T01:55:09.387Z,3.17
2023-01-18T01:57:40.479Z,3.05
2023-01-18T02:00:19.814Z,3.73
2023-01-18T02:03:06.367Z,3.13
2023-01-18T02:05:36.873Z,3.42
2023-01-18T02:08:30.920Z,4.22
2023-01-18T02:10:57.737Z,3.22
2023-01-18T02:13:26.474Z,3.15
2023-01-18T02:16:18.957Z,3.40
2023-01-18T02:18:59.061Z,3.55
2023-01-18T02:21:35.661Z,3.38
2023-01-18T02:24:26.770Z,3.60
2023-01-18T02:27:11.720Z,3.22
2023-01-18T02:29:40.652Z,3.15
2023-01-18T02:35:15.121Z,3.58
2023-01-18T02:37:49.565Z,3.90
2023-01-18T02:40:27.511Z,3.65
2023-01-18T02:43:15.820Z,4.30
2023-01-18T02:46:14.796Z,3.88
2023-01-18T02:48:52.619Z,4.38
2023-01-18T02:51:23.102Z,4.57
2023-01-18T02:53:49.769Z,4.88
2023-01-18T02:56:34.459Z,4.40
2023-01-18T02:59:05.243Z,5.30
2023-01-18T03:01:40.379Z,5.00
2023-01-18T03:04:18.317Z,5.25
2023-01-18T03:06:49.365Z,5.22
2023-01-18T03:09:27.022Z,5.40
2023-01-18T03:12:23.471Z,6.13
2023-01-18T03:15:10.799Z,5.05
2023-01-18T03:17:40.273Z,5.53
2023-01-18T03:20:12.897Z,5.00
2023-01-18T03:22:39.361Z,5.40
2023-01-18T03:25:09.846Z,5.10
2023-01-18T03:27:40.263Z,5.18
2023-01-18T03:30:27.019Z,5.70
2023-01-18T03:33:12.835Z,5.40
2023-01-18T03:35:40.351Z,4.88
2023-01-18T03:38:07.193Z,4.78
2023-01-18T03:40:35.685Z,4.60
2023-01-18T03:43:16.886Z,5.27
2023-01-18T03:45:45.931Z,5.65
2023-01-18T03:48:22.781Z,5.13
2023-01-18T03:51:05.666Z,4.93
2023-01-18T03:53:40.310Z,5.27
2023-01-18T03:56:18.522Z,5.33
2023-01-18T03:58:46.223Z,5.20
2023-01-18T04:01:13.540Z,5.63
2023-01-18T04:03:40.337Z,5.70
2023-01-18T04:06:08.021Z,4.82
2023-01-18T04:08:34.833Z,4.80
2023-01-18T04:11:01.568Z,4.78
2023-01-18T04:13:28.307Z,4.50
2023-01-18T04:15:55.094Z,4.43
2023-01-18T04:18:21.808Z,5.07
2023-01-18T04:20:49.222Z,4.03
2023-01-18T04:23:16.087Z,4.97
2023-01-18T04:25:56.538Z,4.53
2023-01-18T04:28:30.143Z,5.03
2023-01-18T04:31:00.340Z,5.60
2023-01-18T04:33:27.121Z,5.20
2023-01-18T04:35:54.973Z,4.72
2023-01-18T04:38:21.832Z,4.93
2023-01-18T04:41:09.437Z,4.43
2023-01-18T04:43:36.887Z,4.40
2023-01-18T04:46:04.005Z,4.93
2023-01-18T04:48:30.803Z,5.60
2023-01-18T04:50:57.773Z,5.50
2023-01-18T04:53:24.533Z,5.28
2023-01-18T04:55:55.393Z,6.00
2023-01-18T04:58:22.393Z,4.70
2023-01-18T05:00:49.321Z,5.00
2023-01-18T05:03:16.356Z,5.20
2023-01-18T05:05:43.040Z,5.38
2023-01-18T05:08:09.756Z,5.53
2023-01-18T05:13:18.762Z,5.30
2023-01-18T05:15:45.518Z,3.55
2023-01-18T05:18:12.380Z,5.80
2023-01-18T05:23:10.863Z,4.63
2023-01-18T05:28:05.098Z,4.73
2023-01-18T05:30:40.376Z,4.67
2023-01-18T05:33:07.470Z,4.95
2023-01-18T05:35:37.690Z,4.53
2023-01-18T05:38:04.504Z,4.20
2023-01-18T05:40:31.135Z,5.05
2023-01-18T05:42:58.326Z,5.18
2023-01-18T05:45:25.305Z,4.73
2023-01-18T05:47:55.036Z,4.38
2023-01-18T05:50:22.802Z,4.30
2023-01-18T05:52:49.636Z,4.07
2023-01-18T05:55:19.471Z,3.85
2023-01-18T05:57:48.889Z,3.10
2023-01-18T06:00:16.119Z,4.15
2023-01-18T06:02:42.849Z,4.27
2023-01-18T06:05:09.886Z,4.20
2023-01-18T06:07:36.525Z,4.20
2023-01-18T06:10:14.683Z,4.57
2023-01-18T06:12:42.258Z,3.50
2023-01-18T06:15:15.961Z,4.20
2023-01-18T06:17:47.046Z,3.60
2023-01-18T06:20:14.449Z,3.67
2023-01-18T06:22:41.361Z,3.70
2023-01-18T06:25:10.117Z,3.73
2023-01-18T06:27:37.845Z,3.20
2023-01-18T06:30:07.075Z,4.40
2023-01-18T06:35:06.821Z,4.13
2023-01-18T06:40:12.867Z,3.60
2023-01-18T06:45:24.637Z,4.27
2023-01-18T06:47:53.326Z,5.00
2023-01-18T06:50:26.405Z,4.28
2023-01-18T06:55:38.012Z,3.83
2023-01-18T06:58:04.958Z,4.33
2023-01-18T07:03:07.102Z,4.13
2023-01-18T07:05:37.701Z,4.80
2023-01-18T07:08:04.821Z,4.80
2023-01-18T07:10:32.721Z,4.50
2023-01-18T07:13:00.065Z,4.22
2023-01-18T07:15:38.116Z,4.43
2023-01-18T07:18:04.877Z,4.70
2023-01-18T07:20:31.633Z,4.70
2023-01-18T07:22:59.138Z,4.53
2023-01-18T07:25:28.612Z,5.03
2023-01-18T07:27:58.090Z,5.97
2023-01-18T07:30:25.903Z,6.20
2023-01-18T07:32:53.543Z,7.13
2023-01-18T07:35:24.620Z,7.10
2023-01-18T07:37:53.393Z,6.90
2023-01-18T07:40:22.461Z,6.68
2023-01-18T07:43:00.840Z,6.40
2023-01-18T07:45:41.064Z,6.68
2023-01-18T07:48:07.874Z,7.30
2023-01-18T07:50:36.135Z,7.88
2023-01-18T07:53:08.923Z,8.48
2023-01-18T07:58:11.654Z,8.25
2023-01-18T08:03:05.782Z,7.35
2023-01-18T08:05:32.838Z,7.97
2023-01-18T08:07:59.873Z,8.10
2023-01-18T08:10:27.782Z,7.07
2023-01-18T08:12:54.917Z,7.75
2023-01-18T08:15:26.124Z,6.57
2023-01-18T08:17:55.936Z,7.40
2023-01-18T08:20:25.376Z,7.78
2023-01-18T08:22:59.110Z,7.20
2023-01-18T08:25:30.538Z,7.68
2023-01-18T08:28:06.570Z,7.93
2023-01-18T08:33:06.064Z,8.00
2023-01-18T08:35:40.573Z,7.63
2023-01-18T08:38:07.388Z,7.88
2023-01-18T08:40:34.154Z,8.82
2023-01-18T08:43:02.809Z,7.90
2023-01-18T08:45:30.288Z,8.68
2023-01-18T08:48:02.717Z,7.78
2023-01-18T08:50:30.965Z,9.40
2023-01-18T08:53:00.321Z,8.80
2023-01-18T08:55:28.003Z,8.03
2023-01-18T08:57:57.759Z,7.55
2023-01-18T09:00:27.158Z,9.10
2023-01-18T09:02:54.003Z,9.13
2023-01-18T09:05:20.764Z,7.70
2023-01-18T09:07:47.656Z,8.57
2023-01-18T09:10:14.784Z,9.07
2023-01-18T09:12:41.417Z,7.30
2023-01-18T09:15:08.945Z,7.07
2023-01-18T09:17:41.722Z,6.57
2023-01-18T09:20:09.907Z,8.10
2023-01-18T09:22:37.310Z,8.70
2023-01-18T09:25:05.906Z,7.77
2023-01-18T09:27:33.259Z,7.72
2023-01-18T09:29:59.941Z,7.32
2023-01-18T09:32:27.584Z,6.38
2023-01-18T09:34:54.971Z,7.57
2023-01-18T09:37:22.469Z,7.18
2023-01-18T09:39:52.836Z,7.75
2023-01-18T09:42:27.525Z,7.35
2023-01-18T09:44:59.875Z,7.05
2023-01-18T09:47:34.351Z,7.85
2023-01-18T09:50:21.717Z,7.50
2023-01-18T09:53:13.880Z,8.27
2023-01-18T09:55:56.934Z,7.93
2023-01-18T09:58:42.498Z,7.18
2023-01-18T10:01:17.239Z,6.53
2023-01-18T10:03:59.603Z,7.25
2023-01-18T10:06:33.846Z,6.25
2023-01-18T10:09:12.270Z,7.05
2023-01-18T10:11:45.112Z,6.03
2023-01-18T10:14:21.009Z,6.18
2023-01-18T10:16:56.741Z,6.20
2023-01-18T10:19:30.264Z,5.88
2023-01-18T10:22:27.003Z,7.27
2023-01-18T10:25:16.634Z,5.40
2023-01-18T10:27:49.236Z,6.15
2023-01-18T10:30:29.124Z,6.53
2023-01-18T10:32:59.464Z,6.00
2023-01-18T10:38:12.361Z,6.45
2023-01-18T10:40:40.564Z,5.18
2023-01-18T10:43:12.898Z,7.07
2023-01-18T10:45:40.549Z,6.80
2023-01-18T10:48:26.555Z,6.53
2023-01-18T10:50:59.519Z,6.35
2023-01-18T10:53:41.939Z,6.90
2023-01-18T10:56:22.200Z,6.55
2023-01-18T10:58:49.380Z,6.10
2023-01-18T11:01:23.817Z,5.78
2023-01-18T11:03:58.764Z,6.53
2023-01-18T11:06:32.364Z,6.38
2023-01-18T11:09:02.295Z,6.15
2023-01-18T11:11:40.716Z,5.22
2023-01-18T11:14:27.672Z,6.07
2023-01-18T11:16:59.007Z,6.53
2023-01-18T11:19:29.952Z,5.95
2023-01-18T11:21:57.140Z,6.50
2023-01-18T11:24:31.360Z,6.50
2023-01-18T11:27:02.149Z,6.85
2023-01-18T11:32:09.929Z,5.68
2023-01-18T11:37:33.102Z,6.15
2023-01-18T11:40:18.596Z,6.53
2023-01-18T11:42:46.612Z,5.68
2023-01-18T11:45:25.500Z,5.90
2023-01-18T11:48:26.682Z,5.72
2023-01-18T11:51:03.710Z,6.13
2023-01-18T11:53:42.043Z,7.18
2023-01-18T11:56:31.859Z,6.90
2023-01-18T11:59:02.716Z,6.80
2023-01-18T12:01:40.763Z,6.65
2023-01-18T12:04:15.996Z,6.45
2023-01-18T12:06:58.612Z,6.85
2023-01-18T12:09:40.721Z,5.97
2023-01-18T12:12:23.874Z,5.38
2023-01-18T12:15:21.667Z,6.28
2023-01-18T12:20:59.896Z,7.18
2023-01-18T12:23:40.723Z,6.03
2023-01-18T12:26:13.581Z,5.93
2023-01-18T12:29:17.819Z,7.32
2023-01-18T12:32:14.732Z,6.40
2023-01-18T12:34:49.432Z,6.18
2023-01-18T12:37:42.824Z,6.05
2023-01-18T12:40:40.711Z,6.78
2023-01-18T12:43:10.609Z,6.97
2023-01-18T12:45:41.188Z,7.53
2023-01-18T12:48:29.752Z,6.47
2023-01-18T12:50:58.578Z,5.57
2023-01-18T12:53:41.425Z,7.20
2023-01-18T12:56:17.805Z,6.32
2023-01-18T12:58:54.599Z,6.45
2023-01-18T13:01:24.454Z,6.18
2023-01-18T13:03:59.173Z,6.35
2023-01-18T13:06:27.532Z,7.40
2023-01-18T13:09:03.265Z,6.70
2023-01-18T13:11:36.527Z,6.65
2023-01-18T13:14:26.607Z,6.57
2023-01-18T13:17:30.205Z,7.15
2023-01-18T13:20:16.652Z,6.85
2023-01-18T13:23:04.145Z,7.38
2023-01-18T13:25:39.744Z,7.05
2023-01-18T13:28:32.527Z,6.65
2023-01-18T13:31:05.113Z,6.45
2023-01-18T13:33:40.841Z,6.32
2023-01-18T13:36:14.342Z,7.32
2023-01-18T13:39:03.529Z,6.82
2023-01-18T13:41:31.010Z,7.43
2023-01-18T13:44:03.714Z,7.40
2023-01-18T13:46:36.820Z,7.00
2023-01-18T13:49:37.133Z,7.40
2023-01-18T13:52:31.268Z,7.55
2023-01-18T13:55:11.179Z,7.32
2023-01-18T13:57:40.727Z,7.78
2023-01-18T14:00:24.625Z,7.38
2023-01-18T14:02:57.300Z,7.30
2023-01-18T14:05:31.787Z,7.60
2023-01-18T14:08:08.260Z,7.22
2023-01-18T14:10:37.939Z,7.85
2023-01-18T14:13:08.629Z,8.77
2023-01-18T14:15:41.066Z,8.45
2023-01-18T14:18:27.501Z,8.75
2023-01-18T14:21:08.653Z,8.93
2023-01-18T14:23:38.300Z,8.02
2023-01-18T14:26:07.826Z,8.70
2023-01-18T14:28:43.952Z,8.32
2023-01-18T14:31:19.930Z,8.60
2023-01-18T14:33:47.255Z,9.82
2023-01-18T14:36:28.866Z,8.82
2023-01-18T14:39:18.110Z,8.70
2023-01-18T14:41:51.720Z,9.00
2023-01-18T14:44:40.746Z,7.65
2023-01-18T14:47:26.499Z,8.73
2023-01-18T14:49:55.944Z,8.27
2023-01-18T14:52:28.559Z,8.07
2023-01-18T14:54:56.059Z,7.85
2023-01-18T14:57:24.231Z,8.68
2023-01-18T15:00:15.186Z,6.85
2023-01-18T15:02:43.880Z,7.95
2023-01-18T15:05:20.475Z,7.55
2023-01-18T15:07:57.760Z,8.10
2023-01-18T15:10:26.392Z,7.43
2023-01-18T15:12:57.513Z,7.20
2023-01-18T15:15:32.450Z,7.65
2023-01-18T15:18:12.076Z,7.88
2023-01-18T15:20:39.756Z,7.30
2023-01-18T15:23:06.621Z,8.25
2023-01-18T15:25:33.500Z,8.57
2023-01-18T15:28:22.420Z,7.75
2023-01-18T15:31:00.484Z,8.23
2023-01-18T15:33:33.989Z,8.07
2023-01-18T15:36:06.723Z,7.75
2023-01-18T15:38:37.625Z,7.18
2023-01-18T15:41:10.894Z,7.45
2023-01-18T15:43:42.180Z,7.80
2023-01-18T15:46:15.089Z,7.45
2023-01-18T15:48:52.364Z,7.10
2023-01-18T15:51:40.676Z,7.13
2023-01-18T15:54:11.945Z,8.05
2023-01-18T15:59:10.888Z,7.70
2023-01-18T16:01:37.700Z,7.43
2023-01-18T16:04:25.293Z,6.80
2023-01-18T16:06:55.093Z,7.28
2023-01-18T16:09:26.075Z,6.88
2023-01-18T16:11:57.027Z,8.40
2023-01-18T16:14:32.856Z,8.02
2023-01-18T16:17:06.942Z,7.70
2023-01-18T16:19:44.185Z,8.02
2023-01-18T16:22:24.638Z,7.13
2023-01-18T16:25:06.761Z,7.90
2023-01-18T16:27:34.205Z,8.18
2023-01-18T16:30:17.567Z,8.63
2023-01-18T16:32:44.240Z,8.93
2023-01-18T16:35:17.821Z,8.80
2023-01-18T16:37:45.340Z,9.38
2023-01-18T16:40:20.837Z,8.15
2023-01-18T16:43:05.178Z,8.65
2023-01-18T16:45:38.178Z,9.30
2023-01-18T16:48:05.913Z,8.83
2023-01-18T16:50:35.791Z,9.48
2023-01-18T16:53:03.941Z,8.52
2023-01-18T16:55:33.156Z,9.25
2023-01-18T16:58:20.628Z,9.05
2023-01-18T17:01:08.878Z,8.90
2023-01-18T17:03:36.730Z,8.30
2023-01-18T17:06:06.728Z,8.57
2023-01-18T17:08:33.635Z,8.33
2023-01-18T17:11:01.902Z,8.85
2023-01-18T17:13:28.937Z,9.90
2023-01-18T17:15:55.611Z,9.27
2023-01-18T17:18:26.125Z,9.10
2023-01-18T17:20:53.873Z,12.25
2023-01-18T17:23:22.375Z,9.73
2023-01-18T17:25:49.481Z,9.33
2023-01-18T17:28:21.576Z,9.30
2023-01-18T17:30:49.908Z,8.93
2023-01-18T17:33:19.700Z,9.77
2023-01-18T17:35:46.915Z,9.73
2023-01-18T17:38:30.272Z,10.70
2023-01-18T17:40:57.579Z,10.33
2023-01-18T17:43:39.286Z,10.80
2023-01-18T17:46:08.140Z,10.40
2023-01-18T17:51:10.321Z,10.60
2023-01-18T17:59:10.091Z,12.47
2023-01-18T18:01:37.243Z,12.77
2023-01-18T18:04:07.168Z,11.67
2023-01-18T18:06:36.316Z,14.13
2023-01-18T18:09:06.056Z,14.00
2023-01-18T18:11:32.768Z,12.60
2023-01-18T18:14:00.433Z,11.67
2023-01-18T18:16:27.874Z,12.57
2023-01-18T18:18:58.314Z,11.50
2023-01-18T18:21:27.439Z,12.57
2023-01-18T18:23:54.325Z,13.80
2023-01-18T18:26:21.219Z,13.57
2023-01-18T18:28:47.859Z,14.80
2023-01-18T18:31:16.415Z,14.60
2023-01-18T18:33:48.873Z,13.10
2023-01-18T18:36:15.798Z,16.40
2023-01-18T18:38:44.565Z,14.53
2023-01-18T18:41:11.362Z,15.10
2023-01-18T18:43:38.118Z,15.43
2023-01-18T18:46:07.416Z,14.80
2023-01-18T18:48:34.143Z,14.50
2023-01-18T18:51:02.404Z,15.70
2023-01-18T18:53:38.237Z,15.73
2023-01-18T18:56:10.677Z,15.93
2023-01-18T18:58:46.577Z,16.87
2023-01-18T19:01:21.678Z,17.47
2023-01-18T19:03:50.166Z,17.13
2023-01-18T19:06:17.526Z,15.90
2023-01-18T19:08:48.834Z,18.27
2023-01-18T19:11:16.832Z,17.00
2023-01-18T19:13:49.524Z,17.27
2023-01-18T19:16:16.969Z,17.60
2023-01-18T19:18:43.885Z,19.40
2023-01-18T19:21:22.174Z,19.07
2023-01-18T19:23:48.982Z,19.27
2023-01-18T19:26:15.903Z,17.83
2023-01-18T19:28:42.542Z,18.10
2023-01-18T19:31:09.380Z,16.87
2023-01-18T19:36:14.479Z,18.67
2023-01-18T19:38:46.078Z,14.97
2023-01-18T19:41:15.189Z,15.97
2023-01-18T19:43:43.002Z,16.80
2023-01-18T19:46:12.007Z,16.07
2023-01-18T19:51:21.761Z,17.93
2023-01-18T19:53:49.557Z,16.00
2023-01-18T19:56:16.284Z,16.60
2023-01-18T19:58:42.951Z,14.63
2023-01-18T20:01:26.671Z,13.90
2023-01-18T20:04:01.397Z,17.47
2023-01-18T20:06:28.653Z,14.90
2023-01-18T20:08:55.893Z,16.07
2023-01-18T20:11:22.994Z,16.80
2023-01-18T20:13:51.245Z,14.93
2023-01-18T20:16:22.435Z,14.57
2023-01-18T20:18:51.737Z,14.30
2023-01-18T20:21:19.283Z,15.37
2023-01-18T20:23:46.393Z,14.63
2023-01-18T20:26:18.001Z,15.73
2023-01-18T20:28:49.210Z,14.63
2023-01-18T20:31:16.009Z,15.60
2023-01-18T20:33:42.980Z,14.63
2023-01-18T20:36:10.221Z,15.27
2023-01-18T20:38:37.998Z,15.77
2023-01-18T20:41:06.488Z,15.93
2023-01-18T20:43:33.614Z,13.43
2023-01-18T20:46:05.457Z,16.90
2023-01-18T20:48:34.098Z,16.40
2023-01-18T20:51:01.946Z,14.60
2023-01-18T20:53:30.868Z,14.97
2023-01-18T20:56:09.859Z,14.00
2023-01-18T20:58:40.985Z,13.87
2023-01-18T21:01:15.763Z,13.80
2023-01-18T21:03:44.959Z,13.33
2023-01-18T21:06:12.299Z,14.33
2023-01-18T21:11:11.069Z,14.30
2023-01-18T21:16:05.594Z,13.07
2023-01-18T21:18:37.736Z,15.77
2023-01-18T21:21:05.290Z,14.87
2023-01-18T21:26:09.196Z,15.53
2023-01-18T21:28:36.920Z,15.10
2023-01-18T21:31:05.095Z,15.83
2023-01-18T21:33:32.096Z,15.40
2023-01-18T21:36:07.475Z,14.30
2023-01-18T21:38:35.034Z,12.67
2023-01-18T21:41:23.804Z,13.23
2023-01-18T21:44:11.433Z,13.13
2023-01-18T21:49:06.975Z,12.90
2023-01-18T21:51:40.851Z,13.30
2023-01-18T21:54:16.932Z,12.47
2023-01-18T21:56:44.566Z,14.17
2023-01-18T21:59:12.637Z,7.67
2023-01-18T22:01:40.973Z,14.23
2023-01-18T22:04:31.525Z,13.53
2023-01-18T22:07:01.765Z,13.73
2023-01-18T22:09:33.271Z,12.07
2023-01-18T22:12:01.359Z,13.63
2023-01-18T22:14:28.352Z,13.53
2023-01-18T22:16:55.391Z,11.93
2023-01-18T22:19:22.504Z,14.63
2023-01-18T22:21:50.176Z,14.00
2023-01-18T22:24:17.847Z,15.33
2023-01-18T22:26:45.781Z,14.67
2023-01-18T22:29:13.078Z,15.37
2023-01-18T22:31:40.916Z,13.97
2023-01-18T22:34:15.979Z,14.27
2023-01-18T22:36:42.776Z,15.43
2023-01-18T22:39:11.426Z,15.27
2023-01-18T22:44:05.519Z,15.30
2023-01-18T22:46:32.919Z,15.67
2023-01-18T22:49:00.441Z,16.23
2023-01-18T22:51:27.215Z,15.67
2023-01-18T22:53:56.139Z,14.73
2023-01-18T22:56:25.246Z,15.17
2023-01-18T22:58:53.410Z,14.13
2023-01-18T23:01:38.166Z,12.50
2023-01-18T23:04:08.877Z,14.17
2023-01-18T23:06:40.898Z,14.33
2023-01-18T23:09:09.638Z,14.70
2023-01-18T23:11:36.696Z,15.17
2023-01-18T23:14:22.343Z,14.20
2023-01-18T23:17:07.964Z,13.20
2023-01-18T23:19:34.981Z,14.93
2023-01-18T23:22:07.468Z,13.97
2023-01-18T23:24:36.298Z,14.40
2023-01-18T23:27:04.740Z,12.73
2023-01-18T23:29:32.824Z,13.10
2023-01-18T23:31:59.701Z,14.63
2023-01-18T23:34:26.524Z,12.53
2023-01-18T23:36:53.704Z,14.13
2023-01-18T23:42:24.413Z,14.43
2023-01-18T23:45:10.213Z,12.73
2023-01-18T23:47:40.881Z,15.33
2023-01-18T23:50:26.482Z,13.87
2023-01-18T23:53:12.101Z,13.53
2023-01-18T23:58:05.713Z,12.80
